Lake Hamilton, Arkansas
Current Conditions -  °F | °C
As of 9:53 PM on Sunday 23 Nov 2014 (Local Time) from KHOT Reporting Station
Clear Clear  
Wind Chill: 61°   Ceiling: Unl
Heat Index: 61°   Visibility: 10mi
Dew Point: 52°   Wind: 14mph
Humidity: 72%   Direction: 250°WSW
Pressure: 29.43"   Gusts: 22mph
Location:  34.4476°N, 93.1429°W
Report Text: KHOT 240353Z AUTO 25012G19KT 10SM CLR 16/11 A2943 RMK AO2 SLP961 T01610111
Loading
Personal Weather Stations






























Interactive Weather Map New forecast layout! Learn more

10-Day Weather Forecast

Advertisements
Track Severe Weather on mobile